createdAt,value
2018-08-02T00:01:09.464Z,4.05
2018-08-02T00:03:37.202Z,4.05
2018-08-02T00:06:04.976Z,5.33
2018-08-02T00:08:32.712Z,4.72
2018-08-02T00:11:00.396Z,4.42
2018-08-02T00:13:28.217Z,4.40
2018-08-02T00:15:55.902Z,5.60
2018-08-02T00:18:23.676Z,5.10
2018-08-02T00:20:51.357Z,5.25
2018-08-02T00:23:19.094Z,5.00
2018-08-02T00:25:46.735Z,5.17
2018-08-02T00:28:14.466Z,4.53
2018-08-02T00:30:42.179Z,5.17
2018-08-02T00:33:10.110Z,4.60
2018-08-02T00:35:37.923Z,5.28
2018-08-02T00:38:05.680Z,5.25
2018-08-02T00:40:33.384Z,5.25
2018-08-02T00:43:01.156Z,4.77
2018-08-02T00:45:28.884Z,4.90
2018-08-02T00:47:56.579Z,4.55
2018-08-02T00:50:24.359Z,5.62
2018-08-02T00:52:52.012Z,5.20
2018-08-02T00:55:19.752Z,5.10
2018-08-02T00:57:47.447Z,5.05
2018-08-02T01:00:15.191Z,4.90
2018-08-02T01:02:42.954Z,5.40
2018-08-02T01:05:10.778Z,5.05
2018-08-02T01:07:38.435Z,5.30
2018-08-02T01:10:06.263Z,5.10
2018-08-02T01:12:33.912Z,5.37
2018-08-02T01:15:01.680Z,5.28
2018-08-02T01:17:29.419Z,6.05
2018-08-02T01:19:57.279Z,6.12
2018-08-02T01:22:24.919Z,5.70
2018-08-02T01:24:52.733Z,5.28
2018-08-02T01:27:22.653Z,5.15
2018-08-02T01:29:50.831Z,5.92
2018-08-02T01:32:18.776Z,5.55
2018-08-02T01:34:46.649Z,5.87
2018-08-02T01:37:14.317Z,5.62
2018-08-02T01:39:41.969Z,5.70
2018-08-02T01:42:09.727Z,6.45
2018-08-02T01:44:45.494Z,5.65
2018-08-02T01:47:13.234Z,6.05
2018-08-02T01:49:40.875Z,6.47
2018-08-02T01:52:08.633Z,5.70
2018-08-02T01:54:36.292Z,5.90
2018-08-02T01:57:04.124Z,7.37
2018-08-02T01:59:31.782Z,7.15
2018-08-02T02:01:59.618Z,6.17
2018-08-02T02:04:27.395Z,5.92
2018-08-02T02:06:55.180Z,6.45
2018-08-02T02:09:22.820Z,6.95
2018-08-02T02:11:50.568Z,6.95
2018-08-02T02:14:18.311Z,6.55
2018-08-02T02:16:46.066Z,6.28
2018-08-02T02:19:13.700Z,6.93
2018-08-02T02:21:41.468Z,7.00
2018-08-02T02:24:09.124Z,7.78
2018-08-02T02:26:36.869Z,7.35
2018-08-02T02:29:04.614Z,7.25
2018-08-02T02:31:32.271Z,6.80
2018-08-02T02:34:00.023Z,6.60
2018-08-02T02:36:27.683Z,6.47
2018-08-02T02:38:55.517Z,6.72
2018-08-02T02:41:23.132Z,7.15
2018-08-02T02:43:50.890Z,6.50
2018-08-02T02:46:18.555Z,6.90
2018-08-02T02:48:46.298Z,6.97
2018-08-02T02:51:14.000Z,6.45
2018-08-02T02:53:41.731Z,6.50
2018-08-02T02:56:09.372Z,7.00
2018-08-02T02:58:37.095Z,8.10
2018-08-02T03:01:04.758Z,8.45
2018-08-02T03:03:32.574Z,8.38
2018-08-02T03:06:00.194Z,8.50
2018-08-02T03:08:27.844Z,7.83
2018-08-02T03:10:55.568Z,6.90
2018-08-02T03:13:23.340Z,7.80
2018-08-02T03:15:51.007Z,8.85
2018-08-02T03:18:18.895Z,7.53
2018-08-02T03:20:46.696Z,7.92
2018-08-02T03:23:14.365Z,8.55
2018-08-02T03:25:42.103Z,9.80
2018-08-02T03:28:09.747Z,8.88
2018-08-02T03:30:37.484Z,10.08
2018-08-02T03:33:05.112Z,7.85
2018-08-02T03:35:32.868Z,8.23
2018-08-02T03:38:00.525Z,7.33
2018-08-02T03:40:28.304Z,7.85
2018-08-02T03:42:55.945Z,8.08
2018-08-02T03:45:23.623Z,7.05
2018-08-02T03:47:51.359Z,7.30
2018-08-02T03:50:18.994Z,7.30
2018-08-02T03:52:46.739Z,8.68
2018-08-02T03:55:14.417Z,7.90
2018-08-02T03:57:42.167Z,8.45
2018-08-02T04:00:09.836Z,7.53
2018-08-02T04:02:37.672Z,7.83
2018-08-02T04:05:05.508Z,8.55
2018-08-02T04:07:33.298Z,7.58
2018-08-02T04:10:00.959Z,7.78
2018-08-02T04:12:28.680Z,7.80
2018-08-02T04:14:56.450Z,8.03
2018-08-02T04:17:24.047Z,7.25
2018-08-02T04:19:51.758Z,7.05
2018-08-02T04:22:19.426Z,8.00
2018-08-02T04:24:47.223Z,7.97
2018-08-02T04:27:14.751Z,7.60
2018-08-02T04:29:42.491Z,7.20
2018-08-02T04:32:10.163Z,7.50
2018-08-02T04:34:37.907Z,8.55
2018-08-02T04:37:05.618Z,8.83
2018-08-02T04:39:33.344Z,8.45
2018-08-02T04:42:01.049Z,8.03
2018-08-02T04:44:28.791Z,8.40
2018-08-02T04:46:56.458Z,8.18
2018-08-02T04:49:24.207Z,8.40
2018-08-02T04:51:51.877Z,8.95
2018-08-02T04:54:19.645Z,9.55
2018-08-02T04:56:47.273Z,8.95
2018-08-02T04:59:14.975Z,9.05
2018-08-02T05:01:42.737Z,8.80
2018-08-02T05:04:10.466Z,9.05
2018-08-02T05:06:38.106Z,9.35
2018-08-02T05:09:07.769Z,9.20
2018-08-02T05:11:35.569Z,8.83
2018-08-02T05:14:03.191Z,9.38
2018-08-02T05:16:31.039Z,10.00
2018-08-02T05:18:58.773Z,10.13
2018-08-02T05:21:26.570Z,10.55
2018-08-02T05:23:54.317Z,9.90
2018-08-02T05:26:22.317Z,9.45
2018-08-02T05:28:50.047Z,10.85
2018-08-02T05:31:17.771Z,9.10
2018-08-02T05:33:45.484Z,9.60
2018-08-02T05:36:13.749Z,10.15
2018-08-02T05:38:40.913Z,10.00
2018-08-02T05:41:08.773Z,9.30
2018-08-02T05:43:36.461Z,9.43
2018-08-02T05:46:04.231Z,9.10
2018-08-02T05:48:31.864Z,9.05
2018-08-02T05:50:59.607Z,9.73
2018-08-02T05:53:27.233Z,9.18
2018-08-02T05:55:54.882Z,9.13
2018-08-02T05:58:22.579Z,8.78
2018-08-02T06:00:50.240Z,9.30
2018-08-02T06:03:17.963Z,8.63
2018-08-02T06:05:45.602Z,9.25
2018-08-02T06:08:13.326Z,8.37
2018-08-02T06:10:41.025Z,8.70
2018-08-02T06:13:08.895Z,9.00
2018-08-02T06:15:36.553Z,8.15
2018-08-02T06:18:04.365Z,8.60
2018-08-02T06:20:32.008Z,8.37
2018-08-02T06:22:59.727Z,8.03
2018-08-02T06:25:27.428Z,8.58
2018-08-02T06:27:55.266Z,8.50
2018-08-02T06:30:23.174Z,9.20
2018-08-02T06:32:50.900Z,8.63
2018-08-02T06:35:18.535Z,9.20
2018-08-02T06:37:46.143Z,9.23
2018-08-02T06:40:15.212Z,8.53
2018-08-02T06:42:43.068Z,9.28
2018-08-02T06:45:10.727Z,9.27
2018-08-02T06:47:37.622Z,8.70
2018-08-02T06:50:05.416Z,9.20
2018-08-02T06:52:33.066Z,8.83
2018-08-02T06:55:00.802Z,8.30
2018-08-02T06:57:28.422Z,8.70
2018-08-02T06:59:56.179Z,8.70
2018-08-02T07:02:24.289Z,9.47
2018-08-02T07:04:52.124Z,9.20
2018-08-02T07:07:19.751Z,9.63
2018-08-02T07:09:47.479Z,9.30
2018-08-02T07:12:15.211Z,9.17
2018-08-02T07:14:42.922Z,9.50
2018-08-02T07:17:10.583Z,7.90
2018-08-02T07:19:38.320Z,9.10
2018-08-02T07:22:05.982Z,7.80
2018-08-02T07:24:33.704Z,6.60
2018-08-02T07:27:01.344Z,6.73
2018-08-02T07:29:29.660Z,6.53
2018-08-02T07:31:57.410Z,6.20
2018-08-02T07:34:24.967Z,6.17
2018-08-02T07:36:52.712Z,6.70
2018-08-02T07:39:20.377Z,6.00
2018-08-02T07:41:48.174Z,5.00
2018-08-02T07:44:15.866Z,4.83
2018-08-02T07:49:46.045Z,6.00
2018-08-02T07:52:13.811Z,5.03
2018-08-02T07:54:41.499Z,4.90
2018-08-02T07:57:09.331Z,5.23
2018-08-02T07:59:36.967Z,4.70
2018-08-02T08:02:05.056Z,4.63
2018-08-02T08:04:32.933Z,5.80
2018-08-02T08:07:01.012Z,4.80
2018-08-02T08:09:28.755Z,6.20
2018-08-02T08:11:56.455Z,5.67
2018-08-02T08:14:24.215Z,5.60
2018-08-02T08:16:51.912Z,6.20
2018-08-02T08:19:19.656Z,5.80
2018-08-02T08:21:47.286Z,5.60
2018-08-02T08:24:15.012Z,5.90
2018-08-02T08:26:42.732Z,5.80
2018-08-02T08:29:10.487Z,6.37
2018-08-02T08:31:38.143Z,6.07
2018-08-02T08:34:06.080Z,5.90
2018-08-02T08:36:33.744Z,6.63
2018-08-02T08:39:01.514Z,5.90
2018-08-02T08:41:29.144Z,6.87
2018-08-02T08:43:56.963Z,6.90
2018-08-02T08:46:24.726Z,6.07
2018-08-02T08:48:52.823Z,5.90
2018-08-02T08:51:20.551Z,6.30
2018-08-02T08:53:48.299Z,5.53
2018-08-02T08:56:16.003Z,5.60
2018-08-02T08:58:54.999Z,5.90
2018-08-02T09:01:22.618Z,5.53
2018-08-02T09:03:50.339Z,5.40
2018-08-02T09:06:18.195Z,7.17
2018-08-02T09:08:45.842Z,7.27
2018-08-02T09:11:13.570Z,6.73
2018-08-02T09:13:41.117Z,6.97
2018-08-02T09:16:08.885Z,7.43
2018-08-02T09:18:36.551Z,6.37
2018-08-02T09:21:04.182Z,6.60
2018-08-02T09:23:31.811Z,5.93
2018-08-02T09:25:59.593Z,7.60
2018-08-02T09:28:27.309Z,6.43
2018-08-02T09:30:55.030Z,6.10
2018-08-02T09:33:22.669Z,6.77
2018-08-02T09:35:50.416Z,8.50
2018-08-02T09:38:18.060Z,9.10
2018-08-02T09:40:45.760Z,8.00
2018-08-02T09:43:13.515Z,7.00
2018-08-02T09:45:41.165Z,9.17
2018-08-02T09:48:08.893Z,7.20
2018-08-02T09:50:36.565Z,8.77
2018-08-02T09:53:04.342Z,7.93
2018-08-02T09:55:32.025Z,7.53
2018-08-02T09:57:59.762Z,7.47
2018-08-02T10:00:33.108Z,6.53
2018-08-02T10:03:00.971Z,6.50
2018-08-02T10:05:28.623Z,6.70
2018-08-02T10:07:56.371Z,7.90
2018-08-02T10:10:24.036Z,7.63
2018-08-02T10:12:51.842Z,7.63
2018-08-02T10:15:19.515Z,6.83
2018-08-02T10:17:47.289Z,7.57
2018-08-02T10:20:14.953Z,7.87
2018-08-02T10:22:42.603Z,8.73
2018-08-02T10:25:10.235Z,9.37
2018-08-02T10:27:37.876Z,7.33
2018-08-02T10:30:05.734Z,6.33
2018-08-02T10:32:33.851Z,7.70
2018-08-02T10:35:01.611Z,7.60
2018-08-02T10:37:29.351Z,7.13
2018-08-02T10:39:57.108Z,7.13
2018-08-02T10:42:24.772Z,7.47
2018-08-02T10:44:52.546Z,7.70
2018-08-02T10:47:20.209Z,7.90
2018-08-02T10:49:48.004Z,7.20
2018-08-02T10:52:15.644Z,6.70
2018-08-02T10:54:43.462Z,8.20
2018-08-02T10:57:11.155Z,9.23
2018-08-02T10:59:38.891Z,8.10
2018-08-02T11:02:06.772Z,6.93
2018-08-02T11:04:34.507Z,7.03
2018-08-02T11:07:02.210Z,6.50
2018-08-02T11:09:30.009Z,7.80
2018-08-02T11:11:57.655Z,5.90
2018-08-02T11:14:25.339Z,7.13
2018-08-02T11:16:53.127Z,7.80
2018-08-02T11:19:20.829Z,8.53
2018-08-02T11:21:48.652Z,7.80
2018-08-02T11:24:16.360Z,7.83
2018-08-02T11:26:44.079Z,6.93
2018-08-02T11:29:11.812Z,7.90
2018-08-02T11:46:38.716Z,9.40
2018-08-02T11:49:06.352Z,8.33
2018-08-02T11:51:34.048Z,8.43
2018-08-02T11:54:01.764Z,8.50
2018-08-02T11:56:29.507Z,10.67
2018-08-02T11:58:57.228Z,9.80
2018-08-02T12:01:24.994Z,9.67
2018-08-02T12:03:52.825Z,13.13
2018-08-02T12:06:21.743Z,10.97
2018-08-02T12:08:50.214Z,10.27
2018-08-02T12:11:23.638Z,14.00
2018-08-02T12:13:54.337Z,12.60
2018-08-02T12:16:23.046Z,11.97
2018-08-02T12:18:50.614Z,11.20
2018-08-02T12:21:18.352Z,12.33
2018-08-02T12:23:46.137Z,10.87
2018-08-02T12:26:13.864Z,11.40
2018-08-02T12:28:41.516Z,10.50
2018-08-02T12:31:09.276Z,9.30
2018-08-02T12:33:38.595Z,10.57
2018-08-02T12:36:06.548Z,10.80
2018-08-02T12:38:34.208Z,9.23
2018-08-02T12:41:02.189Z,8.80
2018-08-02T12:43:29.852Z,7.37
2018-08-02T12:45:58.110Z,8.53
2018-08-02T12:48:25.759Z,7.63
2018-08-02T12:50:53.701Z,8.57
2018-08-02T12:53:21.423Z,9.30
2018-08-02T12:55:51.200Z,8.10
2018-08-02T12:58:20.846Z,6.80
2018-08-02T13:00:52.731Z,9.10
2018-08-02T13:03:26.983Z,9.47
2018-08-02T13:06:01.620Z,8.40
2018-08-02T13:08:34.863Z,7.07
2018-08-02T13:11:11.034Z,8.50
2018-08-02T13:16:22.404Z,6.93
2018-08-02T13:18:55.630Z,6.87
2018-08-02T13:21:27.678Z,5.77
2018-08-02T13:23:58.406Z,6.90
2018-08-02T13:26:30.904Z,6.20
2018-08-02T13:28:58.711Z,7.63
2018-08-02T13:31:26.210Z,7.63
2018-08-02T13:33:54.760Z,7.60
2018-08-02T13:36:22.485Z,8.30
2018-08-02T13:38:50.115Z,7.93
2018-08-02T13:41:17.856Z,7.13
2018-08-02T13:43:45.526Z,6.30
2018-08-02T13:46:13.303Z,6.30
2018-08-02T13:48:40.984Z,7.33
2018-08-02T13:51:28.183Z,6.37
2018-08-02T13:53:55.871Z,6.50
2018-08-02T13:56:23.616Z,6.20
2018-08-02T13:58:51.767Z,6.83
2018-08-02T14:01:19.591Z,6.77
2018-08-02T14:03:47.328Z,6.23
2018-08-02T14:06:15.111Z,5.90
2018-08-02T14:08:42.771Z,5.23
2018-08-02T14:11:10.559Z,6.20
2018-08-02T14:13:38.221Z,6.37
2018-08-02T14:16:05.942Z,7.40
2018-08-02T14:18:33.716Z,7.10
2018-08-02T14:21:01.388Z,6.53
2018-08-02T14:23:29.151Z,6.20
2018-08-02T14:25:56.816Z,7.10
2018-08-02T14:28:24.580Z,6.93
2018-08-02T14:30:52.250Z,6.90
2018-08-02T14:33:20.067Z,6.10
2018-08-02T14:35:47.692Z,6.50
2018-08-02T14:38:15.418Z,6.60
2018-08-02T14:40:43.123Z,6.60
2018-08-02T14:43:10.906Z,6.30
2018-08-02T14:45:38.553Z,5.80
2018-08-02T14:48:06.621Z,5.53
2018-08-02T14:50:34.297Z,6.10
2018-08-02T14:53:02.066Z,5.47
2018-08-02T14:55:29.845Z,5.83
2018-08-02T14:57:57.529Z,6.03
2018-08-02T15:00:25.319Z,6.20
2018-08-02T15:02:53.043Z,5.70
2018-08-02T15:05:20.851Z,6.60
2018-08-02T15:07:48.581Z,5.57
2018-08-02T15:10:16.371Z,6.53
2018-08-02T15:12:45.087Z,6.23
2018-08-02T15:15:12.812Z,6.20
2018-08-02T15:17:40.471Z,6.40
2018-08-02T15:20:08.952Z,6.70
2018-08-02T15:22:36.601Z,6.50
2018-08-02T15:25:04.454Z,6.40
2018-08-02T15:27:32.139Z,5.97
2018-08-02T15:29:59.770Z,6.00
2018-08-02T15:32:27.533Z,6.00
2018-08-02T15:34:55.331Z,6.73
2018-08-02T15:37:23.108Z,6.83
2018-08-02T15:39:50.852Z,6.20
2018-08-02T15:42:18.591Z,6.70
2018-08-02T15:44:46.310Z,6.17
2018-08-02T15:47:14.059Z,6.13
2018-08-02T15:49:41.708Z,7.10
2018-08-02T15:52:09.419Z,6.77
2018-08-02T15:54:37.040Z,6.70
2018-08-02T15:57:04.948Z,6.27
2018-08-02T15:59:32.651Z,6.63
2018-08-02T16:02:00.454Z,6.53
2018-08-02T16:04:28.180Z,6.33
2018-08-02T16:06:55.945Z,6.57
2018-08-02T16:09:23.627Z,6.03
2018-08-02T16:11:51.315Z,7.20
2018-08-02T16:14:19.096Z,7.67
2018-08-02T16:16:46.786Z,6.97
2018-08-02T16:19:14.817Z,7.30
2018-08-02T16:21:42.476Z,7.63
2018-08-02T16:24:10.290Z,7.40
2018-08-02T16:26:37.935Z,7.90
2018-08-02T16:29:05.715Z,6.90
2018-08-02T16:31:33.419Z,7.20
2018-08-02T16:34:01.176Z,7.90
2018-08-02T16:36:28.901Z,7.20
2018-08-02T16:38:56.655Z,8.10
2018-08-02T16:41:26.084Z,8.30
2018-08-02T16:43:53.840Z,7.87
2018-08-02T16:46:21.463Z,7.43
2018-08-02T16:48:52.168Z,7.87
2018-08-02T16:51:19.848Z,8.20
2018-08-02T16:53:48.727Z,7.90
2018-08-02T16:56:16.424Z,7.67
2018-08-02T16:58:44.092Z,8.13
2018-08-02T17:01:11.807Z,7.17
2018-08-02T17:03:39.576Z,7.47
2018-08-02T17:06:07.379Z,7.27
2018-08-02T17:08:35.125Z,7.60
2018-08-02T17:11:02.926Z,7.77
2018-08-02T17:13:30.556Z,7.77
2018-08-02T17:15:58.340Z,7.53
2018-08-02T17:18:26.003Z,7.60
2018-08-02T17:20:53.776Z,7.60
2018-08-02T17:23:21.615Z,7.40
2018-08-02T17:25:49.348Z,7.40
2018-08-02T17:28:17.003Z,7.27
2018-08-02T17:30:44.761Z,7.50
2018-08-02T17:33:12.408Z,7.07
2018-08-02T17:35:40.200Z,7.20
2018-08-02T17:38:07.872Z,6.90
2018-08-02T17:40:35.655Z,7.20
2018-08-02T17:43:03.370Z,7.33
2018-08-02T17:45:31.125Z,6.93
2018-08-02T17:47:58.763Z,7.13
2018-08-02T17:50:26.444Z,7.70
2018-08-02T17:52:54.216Z,7.30
2018-08-02T17:55:21.871Z,7.57
2018-08-02T17:57:49.647Z,7.43
2018-08-02T18:00:17.296Z,8.33
2018-08-02T18:02:45.049Z,7.93
2018-08-02T18:05:12.784Z,9.00
2018-08-02T18:07:40.523Z,8.70
2018-08-02T18:10:08.252Z,7.97
2018-08-02T18:12:36.039Z,9.23
2018-08-02T18:15:04.555Z,11.13
2018-08-02T18:17:32.307Z,12.90
2018-08-02T18:19:59.990Z,11.53
2018-08-02T18:22:27.748Z,10.07
2018-08-02T18:24:55.422Z,8.87
2018-08-02T18:27:23.156Z,9.13
2018-08-02T18:29:50.895Z,8.07
2018-08-02T18:32:18.665Z,8.50
2018-08-02T18:34:46.347Z,8.10
2018-08-02T18:37:14.028Z,7.83
2018-08-02T18:39:41.805Z,8.50
2018-08-02T18:42:09.475Z,8.07
2018-08-02T18:44:37.259Z,8.07
2018-08-02T18:47:05.056Z,8.70
2018-08-02T18:49:32.798Z,8.57
2018-08-02T18:52:00.492Z,7.80
2018-08-02T18:54:28.249Z,8.87
2018-08-02T18:56:55.964Z,7.57
2018-08-02T18:59:24.284Z,8.67
2018-08-02T19:01:51.964Z,8.37
2018-08-02T19:04:19.874Z,8.47
2018-08-02T19:06:47.598Z,7.70
2018-08-02T19:09:15.253Z,8.13
2018-08-02T19:11:43.004Z,8.83
2018-08-02T19:14:10.757Z,7.80
2018-08-02T19:16:38.760Z,8.00
2018-08-02T19:19:07.927Z,8.60
2018-08-02T19:21:36.680Z,9.00
2018-08-02T19:24:05.537Z,8.30
2018-08-02T19:26:33.290Z,8.80
2018-08-02T19:29:00.940Z,8.73
2018-08-02T19:31:30.051Z,8.70
2018-08-02T19:33:57.646Z,9.10
2018-08-02T19:36:25.361Z,9.33
2018-08-02T19:38:53.165Z,8.80
2018-08-02T19:41:20.951Z,9.77
2018-08-02T19:43:48.618Z,10.60
2018-08-02T19:46:16.409Z,10.70
2018-08-02T19:48:44.073Z,10.93
2018-08-02T19:51:11.917Z,9.90
2018-08-02T19:53:39.636Z,10.03
2018-08-02T19:56:07.535Z,9.80
2018-08-02T19:58:35.360Z,9.50
2018-08-02T20:01:03.237Z,9.97
2018-08-02T20:03:31.076Z,10.20
2018-08-02T20:05:58.801Z,9.50
2018-08-02T20:08:26.964Z,10.20
2018-08-02T20:10:54.698Z,10.07
2018-08-02T20:13:22.412Z,10.40
2018-08-02T20:15:50.237Z,10.70
2018-08-02T20:18:18.420Z,11.97
2018-08-02T20:20:46.159Z,11.20
2018-08-02T20:23:14.092Z,11.40
2018-08-02T20:25:41.903Z,10.90
2018-08-02T20:28:09.585Z,12.00
2018-08-02T20:30:37.369Z,11.23
2018-08-02T20:33:05.038Z,11.40
2018-08-02T20:35:32.815Z,11.60
2018-08-02T20:38:00.657Z,12.00
2018-08-02T20:40:28.452Z,11.03
2018-08-02T20:42:56.256Z,12.60
2018-08-02T20:45:24.041Z,11.10
2018-08-02T20:47:51.853Z,12.10
2018-08-02T20:50:19.547Z,12.77
2018-08-02T20:52:47.314Z,12.30
2018-08-02T20:55:15.022Z,12.07
2018-08-02T20:57:42.855Z,12.00
2018-08-02T21:00:10.573Z,12.10
2018-08-02T21:02:38.388Z,11.30
2018-08-02T21:05:06.422Z,12.10
2018-08-02T21:07:34.246Z,12.37
2018-08-02T21:10:02.004Z,11.70
2018-08-02T21:12:29.673Z,12.23
2018-08-02T21:14:57.453Z,11.80
2018-08-02T21:17:25.177Z,12.80
2018-08-02T21:19:52.966Z,12.20
2018-08-02T21:22:20.619Z,12.23
2018-08-02T21:24:48.460Z,14.00
2018-08-02T21:27:16.121Z,12.77
2018-08-02T21:29:43.994Z,12.20
2018-08-02T21:32:12.005Z,13.47
2018-08-02T21:34:39.768Z,12.90
2018-08-02T21:37:07.610Z,12.43
2018-08-02T21:39:35.448Z,12.97
2018-08-02T21:42:03.175Z,12.30
2018-08-02T21:44:30.850Z,13.23
2018-08-02T21:46:58.620Z,12.60
2018-08-02T21:49:26.280Z,12.47
2018-08-02T21:51:54.047Z,11.53
2018-08-02T21:54:21.734Z,12.90
2018-08-02T21:56:49.502Z,13.07
2018-08-02T21:59:17.261Z,11.77
2018-08-02T22:01:44.915Z,12.40
2018-08-02T22:04:12.716Z,13.50
2018-08-02T22:06:40.486Z,12.60
2018-08-02T22:09:08.864Z,13.03
2018-08-02T22:11:42.865Z,12.10
2018-08-02T22:14:16.148Z,11.87
2018-08-02T22:16:47.045Z,12.03
2018-08-02T22:19:14.883Z,12.80
2018-08-02T22:21:42.556Z,12.70
2018-08-02T22:24:10.313Z,13.27
2018-08-02T22:26:37.981Z,13.20
2018-08-02T22:29:05.779Z,12.33
2018-08-02T22:31:33.407Z,11.93
2018-08-02T22:34:01.187Z,12.40
2018-08-02T22:36:28.876Z,12.70
2018-08-02T22:38:56.620Z,13.23
2018-08-02T22:41:24.259Z,14.00
2018-08-02T22:43:52.037Z,14.40
2018-08-02T22:46:19.692Z,14.87
2018-08-02T22:48:47.449Z,13.53
2018-08-02T22:51:15.255Z,14.60
2018-08-02T22:53:42.924Z,14.33
2018-08-02T22:56:10.680Z,14.87
2018-08-02T22:58:38.386Z,13.10
2018-08-02T23:01:06.202Z,14.93
2018-08-02T23:03:33.960Z,13.70
2018-08-02T23:06:01.730Z,13.20
2018-08-02T23:08:29.376Z,13.23
2018-08-02T23:10:57.119Z,13.60
2018-08-02T23:13:24.744Z,14.70
2018-08-02T23:15:52.492Z,13.97
2018-08-02T23:18:20.173Z,12.50
2018-08-02T23:20:47.969Z,13.03
2018-08-02T23:23:15.610Z,12.77
2018-08-02T23:25:43.248Z,13.93
2018-08-02T23:28:10.993Z,14.80
2018-08-02T23:30:38.703Z,13.53
2018-08-02T23:33:06.518Z,14.13
2018-08-02T23:35:34.252Z,13.50
2018-08-02T23:38:01.901Z,13.40
2018-08-02T23:40:29.613Z,13.80
2018-08-02T23:42:57.352Z,13.40
2018-08-02T23:45:24.980Z,13.90
2018-08-02T23:47:52.711Z,13.50
2018-08-02T23:50:20.365Z,14.57
2018-08-02T23:52:48.129Z,15.47
2018-08-02T23:55:15.739Z,13.90
2018-08-02T23:57:43.478Z,14.17
